x

9442396 - La Push, Wa (lapw1) Weather Station

12:36am - Sat 29th Nov 2014 All times are PST. -8 hours from GMT.

  • Wind
    21mph, 26mph gusts
  • Sea Temp 45°f
  • Air Temp 38°f
  • Sea Pressure 1000.8mb
  • 9442396 - La Push, Wa
  • 9442396 - La Push, Wa

More Historic Weather Station data

Upgrade to MSW Pro to gain access to the past 30 days of data for over 8000 Wavebouys and Weather Stations around the globe.

Join Pro

Comparision Forecast

View Surf forecast
   
Sat 11/29 12:36am 21 26 mph 1000.8mb 45f 38f
12:30am 21 29 mph 1000.7mb 45f 39f
12:24am 21 25 mph 1000.8mb 46f 40f
12:18am 18 29 mph 1000.6mb 46f 39f
12:12am 24 33 mph 1000.8mb 46f 40f
12:06am 23 31 mph 1000.8mb 46f 40f
12:00am 21 26 mph 1000.7mb 45f 40f
Fri 11/28 11:36pm 14 18 mph 1000.8mb 46f 37f
11:30pm 18 26 mph 1000.8mb 46f 37f
11:24pm 22 29 mph 1001mb 46f 38f
11:18pm 14 23 mph 1000.8mb 46f 37f
11:12pm 7 9 mph 1000.4mb 46f 36f
11:06pm 9 14 mph 1000.6mb 46f 35f
11:00pm 15 25 mph 1000.7mb 46f 36f
10:36pm 22 32 mph 1000.6mb 47f 38f
10:30pm 28 33 mph 1001.1mb 47f 40f
10:24pm 22 29 mph 1000.6mb 46f 41f
10:18pm 25 30 mph 1000.5mb 46f 42f
10:12pm 20 26 mph 1000.1mb 46f 41f
10:06pm 20 26 mph 1000.2mb 46f 42f
10:00pm 21 28 mph 1000.2mb 46f 41f
9:36pm 24 32 mph 1000.2mb 47f 41f
9:30pm 24 29 mph 1000.1mb 47f 42f
9:24pm 23 29 mph 1000.1mb 47f 42f
9:18pm 22 28 mph 1000mb 47f 42f
9:12pm 21 29 mph 1000mb 47f 42f
9:06pm 18 26 mph 1000mb 47f 42f
9:00pm 24 29 mph 1000.2mb 47f 42f
8:36pm 22 28 mph 1000mb 47f 42f
8:30pm 25 30 mph 1000.1mb 47f 42f
8:24pm 26 31 mph 1000.3mb 48f 43f
8:18pm 21 25 mph 999.9mb 47f 44f
8:12pm 23 28 mph 1000mb 47f 43f
8:06pm 17 24 mph 1000mb 47f 42f
8:00pm 17 22 mph 999.9mb 48f 40f
7:36pm 18 25 mph 999.8mb 47f 44f
7:30pm 22 26 mph 999.8mb 47f 44f
7:24pm 20 28 mph 999.6mb 47f 44f
7:18pm 18 26 mph 999.6mb 47f 44f
7:12pm 18 24 mph 999.7mb 48f 44f
7:06pm 17 28 mph 999.8mb 48f 44f
7:00pm 21 25 mph 999.9mb 48f 43f
6:36pm  -  mph - 48f -
6:30pm  -  mph - 48f -
6:24pm  -  mph - 48f -
6:18pm  -  mph - 48f -
6:12pm  -  mph - 48f -
6:06pm  -  mph - 48f -
6:00pm  -  mph - 48f -
5:36pm 28 33 mph 1000.3mb 48f 45f
5:30pm 22 26 mph 1000mb 48f 45f
5:24pm 22 26 mph 1000mb 48f 45f
5:18pm 18 28 mph 999.8mb 48f 45f
5:12pm 21 25 mph 999.9mb 48f 44f
5:06pm 22 26 mph 999.9mb 48f 44f
5:00pm 23 30 mph 999.8mb 48f 44f
4:36pm 23 28 mph 999.9mb 48f 44f
4:30pm 22 28 mph 999.7mb 48f 44f
4:24pm 21 24 mph 999.8mb 48f 44f
4:18pm 18 28 mph 999.7mb 48f 45f
4:12pm 23 29 mph 999.9mb 48f 44f
4:06pm 24 31 mph 1000mb 48f 45f
4:00pm 23 33 mph 999.9mb 48f 45f
3:36pm 25 30 mph 999.8mb 49f 45f
3:30pm 23 28 mph 999.6mb 49f 46f
3:24pm 21 26 mph 999.5mb 49f 45f
3:18pm 22 26 mph 999.6mb 49f 46f
3:12pm 22 26 mph 999.5mb 49f 46f
3:06pm 22 28 mph 999.5mb 49f 46f
3:00pm 22 29 mph 999.6mb 49f 46f
2:36pm 24 29 mph 999.5mb 49f 46f
2:30pm 24 30 mph 999.5mb 49f 46f
2:24pm 24 29 mph 999.5mb 48f 46f
2:18pm 24 30 mph 999.4mb 48f 47f
2:12pm 24 29 mph 999.3mb 48f 47f
2:06pm 22 29 mph 999.2mb 49f 47f
2:00pm 23 28 mph 999.3mb 49f 47f
1:36pm 16 21 mph 999.3mb 48f 48f
1:30pm 17 21 mph 999.2mb 48f 48f
1:24pm 15 20 mph 999.2mb 48f 48f
1:18pm 17 21 mph 999.3mb 48f 48f
1:12pm 14 21 mph 999.2mb 48f 48f
1:06pm 17 20 mph 999.4mb 48f 48f
1:00pm 13 18 mph 999.3mb 48f 48f
12:36pm 13 17 mph 999.6mb 49f 48f
12:30pm 14 17 mph 999.6mb 49f 48f
12:24pm 13 16 mph 999.6mb 49f 48f
12:18pm 15 18 mph 999.8mb 49f 48f
12:12pm 15 20 mph 999.8mb 49f 48f
12:06pm 14 18 mph 999.8mb 49f 47f
12:00pm 17 20 mph 999.9mb 49f 47f
11:36am 13 15 mph 1000.2mb 49f 48f
11:30am 13 17 mph 1000.3mb 49f 48f
11:24am 15 18 mph 1000.3mb 49f 48f
11:18am 13 16 mph 1000.3mb 49f 48f
11:12am 11 14 mph 1000.4mb 49f 48f
11:06am 11 14 mph 1000.4mb 49f 48f
11:00am 11 16 mph 1000.5mb 49f 48f
10:36am 13 15 mph 1000.6mb 49f 48f
10:30am 11 16 mph 1000.7mb 49f 47f
10:24am 7 13 mph 1000.5mb 49f 47f
10:18am 5 11 mph 1000.6mb 49f 48f
10:12am 13 15 mph 1000.7mb 49f 48f
10:06am 13 16 mph 1000.7mb 49f 48f
10:00am 13 17 mph 1000.8mb 49f 48f
9:36am  -  3 mph 1000.8mb 49f 44f
9:30am 2 3 mph 1000.7mb 49f 44f
9:24am 1 3 mph 1000.7mb 49f 44f
9:18am 1 3 mph 1000.6mb 49f 44f
9:12am 2 3 mph 1000.6mb 49f 44f
9:06am 2 3 mph 1000.7mb 49f 44f
9:00am 2 5 mph 1000.7mb 49f 44f
8:36am 3 13 mph 1000.9mb 49f 45f
8:30am 7 13 mph 1001mb 49f 45f
8:24am 3 5 mph 1000.9mb 49f 45f
8:18am 1 3 mph 1001mb 49f 45f
8:12am 2 5 mph 1000.9mb 49f 46f
8:06am 3 13 mph 1001mb 49f 47f
8:00am 10 11 mph 1001.1mb 49f 47f
7:36am 11 16 mph 1001.2mb 49f 47f
7:30am 10 16 mph 1001.1mb 49f 47f
7:24am 11 16 mph 1001.1mb 49f 47f
7:18am 10 15 mph 1001.3mb 49f 47f
7:12am 10 13 mph 1001.4mb 49f 47f
7:06am 9 13 mph 1001.5mb 49f 46f
7:00am 3 7 mph 1001.4mb 49f 46f
6:36am 10 13 mph 1001.6mb 49f 47f
6:30am 10 15 mph 1001.6mb 49f 47f
6:24am 14 16 mph 1001.6mb 49f 47f
6:18am 5 11 mph 1001.6mb 49f 47f
6:12am 8 11 mph 1001.7mb 49f 47f
6:06am 11 14 mph 1001.6mb 49f 47f
6:00am 11 15 mph 1001.7mb 50f 46f
5:36am  -  3 mph 1001.6mb 50f 46f
5:30am 2 3 mph 1001.6mb 50f 46f
5:24am 2 6 mph 1001.8mb 50f 46f
5:18am  -  3 mph 1001.9mb 50f 46f
5:12am  -  2 mph 1002mb 50f 46f
5:06am 1 2 mph 1002mb 50f 46f
5:00am 2 8 mph 1002.1mb 50f 46f
4:36am 8 13 mph 1002.4mb 50f 46f
4:30am 13 16 mph 1002.4mb 50f 47f
4:24am 10 14 mph 1002.5mb 50f 46f
4:18am 13 15 mph 1002.5mb 50f 47f
4:12am 14 16 mph 1002.5mb 50f 47f
4:06am 14 20 mph 1002.5mb 50f 47f
4:00am 6 11 mph 1002.5mb 50f 47f
3:36am 13 16 mph 1002.6mb 50f 47f
3:30am 11 13 mph 1002.7mb 50f 47f
3:24am 13 17 mph 1002.7mb 50f 46f
3:18am 15 18 mph 1002.8mb 50f 47f
3:12am 18 21 mph 1002.9mb 50f 47f
3:06am 16 21 mph 1002.9mb 50f 47f
3:00am 18 22 mph 1002.9mb 50f 48f
2:36am 17 22 mph 1002.9mb 50f 48f
2:30am 14 17 mph 1002.8mb 49f 48f
2:24am 15 18 mph 1002.8mb 49f 48f
2:18am 16 21 mph 1002.7mb 49f 49f
2:12am 17 21 mph 1002.7mb 50f 48f
2:06am 20 22 mph 1002.4mb 50f 49f
2:00am 16 23 mph 1002.2mb 50f 49f
1:54am 21 25 mph 1002.2mb 50f 52f
1:48am 11 18 mph 1002.2mb 50f 54f
1:36am 14 20 mph 1002mb 50f 55f
1:30am 14 22 mph 1002.1mb 50f 55f
1:24am 14 21 mph 1002.3mb 50f 55f
1:18am 15 24 mph 1002.4mb 50f 55f
1:12am 15 21 mph 1002.4mb 50f 55f
1:06am 15 25 mph 1002.5mb 50f 55f
1:00am 18 25 mph 1002.5mb 50f 55f
12:54am 16 23 mph 1002.6mb 50f 55f
12:48am 17 28 mph 1002.7mb 50f 55f
12:36am 20 30 mph 1002.7mb 50f 55f
12:30am 16 25 mph 1002.7mb 50f 54f
12:24am 14 23 mph 1002.7mb 50f 54f
12:18am 16 23 mph 1002.7mb 50f 54f
12:12am 16 25 mph 1002.7mb 50f 54f
12:06am 16 22 mph 1002.8mb 50f 54f
12:00am 17 22 mph 1002.8mb 50f 54f
Thu 11/27 11:54pm 15 22 mph 1002.8mb 50f 54f
11:48pm 14 20 mph 1002.8mb 50f 54f
11:36pm 16 24 mph 1003mb 50f 54f
11:30pm 15 25 mph 1003mb 50f 54f
11:24pm 16 25 mph 1003mb 50f 54f
11:18pm 15 26 mph 1003.1mb 50f 53f
11:12pm 15 28 mph 1003.2mb 49f 54f
11:06pm 20 29 mph 1003.2mb 49f 54f
11:00pm 18 29 mph 1003.2mb 50f 54f
10:54pm 18 25 mph 1003.1mb 50f 54f
10:48pm 16 25 mph 1003.2mb 50f 54f
10:36pm 15 23 mph 1003.4mb 49f 54f
10:30pm 15 21 mph 1003.4mb 49f 54f
10:24pm 14 21 mph 1003.6mb 49f 54f
10:18pm 14 20 mph 1003.6mb 49f 54f
10:12pm 15 21 mph 1003.6mb 49f 54f
10:06pm 17 21 mph 1003.7mb 49f 54f
10:00pm 16 20 mph 1003.7mb 49f 54f
9:54pm 15 20 mph 1003.7mb 50f 54f
9:48pm 15 21 mph 1003.7mb 50f 54f
9:36pm 16 21 mph 1003.8mb 50f 54f
9:30pm 15 21 mph 1003.8mb 50f 54f
9:24pm 16 22 mph 1003.9mb 50f 54f
9:18pm 15 20 mph 1003.9mb 50f 54f
9:12pm 13 22 mph 1004.1mb 50f 54f
9:06pm 17 23 mph 1004.1mb 50f 55f
9:00pm 18 23 mph 1004.1mb 50f 54f
8:54pm 16 22 mph 1004.2mb 50f 54f
8:48pm 16 22 mph 1004.3mb 49f 54f
8:36pm 15 21 mph 1004.3mb 49f 54f
8:30pm 17 22 mph 1004.3mb 49f 54f
8:24pm 17 21 mph 1004.4mb 49f 54f
8:18pm 15 21 mph 1004.5mb 49f 54f
8:12pm 17 22 mph 1004.5mb 49f 54f
8:06pm 16 21 mph 1004.6mb 49f 54f
8:00pm 15 23 mph 1004.5mb 49f 54f
7:54pm 16 21 mph 1004.5mb 49f 54f
7:48pm 17 21 mph 1004.7mb 49f 54f
7:36pm 16 21 mph 1004.8mb 49f 54f
7:30pm 17 23 mph 1004.8mb 49f 54f
7:24pm 18 22 mph 1004.8mb 50f 54f
7:18pm 16 22 mph 1004.8mb 50f 54f
7:12pm 17 22 mph 1004.8mb 50f 54f
7:06pm 15 20 mph 1004.9mb 50f 54f
7:00pm 17 22 mph 1004.9mb 50f 54f
6:54pm 15 20 mph 1005mb 50f 54f
6:48pm 15 21 mph 1005mb 50f 54f
6:36pm 14 18 mph 1005.1mb 50f 54f
6:30pm 15 20 mph 1005.1mb 50f 54f
6:24pm 14 18 mph 1005.1mb 50f 54f
6:18pm 14 20 mph 1005.1mb 50f 54f
6:12pm 15 18 mph 1005.1mb 50f 54f
6:06pm 14 21 mph 1005.1mb 50f 54f
6:00pm 15 20 mph 1005.2mb 50f 54f
5:54pm 15 20 mph 1005.3mb 50f 54f
5:48pm 15 20 mph 1005.3mb 50f 54f
5:36pm 14 22 mph 1005.3mb 50f 54f
5:30pm 14 18 mph 1005.5mb 50f 54f
5:24pm 13 18 mph 1005.4mb 50f 54f
5:18pm 14 20 mph 1005.5mb 50f 54f
5:12pm 14 18 mph 1005.5mb 50f 54f
5:06pm 14 18 mph 1005.6mb 50f 54f
5:00pm 15 21 mph 1005.6mb 50f 54f
4:54pm 15 20 mph 1005.7mb 50f 54f
4:48pm 14 20 mph 1005.8mb 49f 54f
4:36pm 15 18 mph 1005.9mb 50f 55f
4:30pm 15 20 mph 1005.9mb 50f 55f
4:24pm 14 17 mph 1005.9mb 50f 55f
4:18pm 14 18 mph 1006mb 50f 55f
4:12pm 16 20 mph 1005.9mb 50f 55f
4:06pm 15 20 mph 1005.9mb 50f 55f
4:00pm 15 21 mph 1005.9mb 50f 55f
3:54pm 15 21 mph 1006mb 50f 55f
3:48pm 15 18 mph 1006.1mb 50f 55f
3:36pm 16 21 mph 1006.1mb 50f 55f
3:30pm 16 20 mph 1006.1mb 50f 55f
3:24pm 16 22 mph 1006.1mb 50f 55f
3:18pm 14 17 mph 1006.1mb 50f 55f
3:12pm 15 20 mph 1006.2mb 50f 55f
3:06pm 13 17 mph 1006.2mb 50f 55f
3:00pm 14 17 mph 1006.2mb 50f 55f
2:54pm 14 20 mph 1006.3mb 50f 55f
2:48pm 14 17 mph 1006.3mb 50f 55f
2:36pm 17 22 mph 1006.4mb 50f 55f
2:30pm 11 16 mph 1006.5mb 50f 55f
2:24pm 16 18 mph 1006.6mb 50f 55f
2:18pm 15 20 mph 1006.7mb 50f 55f
2:12pm 15 22 mph 1006.7mb 50f 55f
2:06pm 16 21 mph 1006.7mb 50f 55f
2:00pm 16 22 mph 1006.8mb 50f 55f
1:54pm 16 21 mph 1006.9mb 49f 55f
1:48pm 15 21 mph 1006.9mb 49f 55f
1:36pm 14 18 mph 1006.9mb 49f 55f
1:30pm 15 18 mph 1007mb 49f 55f
1:24pm 14 18 mph 1007mb 49f 55f
1:18pm 14 18 mph 1007mb 49f 55f
1:12pm 14 18 mph 1007mb 49f 55f
1:06pm 14 18 mph 1007.1mb 49f 55f
1:00pm 15 17 mph 1007.1mb 49f 55f
12:54pm 15 21 mph 1007.2mb 49f 54f
12:48pm 15 20 mph 1007.3mb 49f 55f
12:36pm 14 20 mph 1007.3mb 49f 54f
12:30pm 14 21 mph 1007.3mb 49f 55f
12:24pm 15 18 mph 1007.4mb 49f 55f
12:18pm 14 20 mph 1007.4mb 49f 55f
12:12pm 14 17 mph 1007.4mb 49f 55f
12:06pm 15 20 mph 1007.4mb 49f 55f
12:00pm 15 22 mph 1007.5mb 49f 55f
11:54am 17 22 mph 1007.5mb 49f 55f
11:48am 16 22 mph 1007.5mb 49f 55f
11:36am 15 22 mph 1007.6mb 49f 55f
11:30am 17 22 mph 1007.6mb 49f 55f
11:24am 20 23 mph 1007.7mb 49f 55f
11:18am 16 22 mph 1007.8mb 49f 55f
11:12am 16 23 mph 1007.8mb 49f 55f
11:06am 17 23 mph 1007.8mb 49f 55f
11:00am 17 23 mph 1007.8mb 49f 55f
10:54am 15 23 mph 1007.8mb 49f 55f
10:48am 15 23 mph 1007.8mb 49f 55f
10:36am 14 25 mph 1007.9mb 49f 55f
10:30am 15 23 mph 1008mb 49f 55f
10:24am 13 17 mph 1008.1mb 49f 55f
10:18am 14 22 mph 1008.1mb 49f 55f
10:12am 16 23 mph 1008.1mb 49f 55f
10:06am 17 23 mph 1008mb 49f 55f
10:00am 16 21 mph 1008.1mb 49f 55f
9:54am 16 24 mph 1008.1mb 49f 55f
9:48am 16 24 mph 1008.1mb 49f 55f
9:36am 15 24 mph 1008.1mb 49f 55f
9:30am 16 23 mph 1008.2mb 50f 55f
9:24am 14 22 mph 1008.3mb 50f 55f
9:18am 18 24 mph 1008.3mb 50f 55f
9:12am 15 23 mph 1008.4mb 50f 55f
9:06am 15 21 mph 1008.5mb 50f 55f
9:00am 14 20 mph 1008.6mb 50f 55f
8:54am 13 22 mph 1008.6mb 50f 55f
8:48am 15 20 mph 1008.7mb 50f 55f
8:36am 15 20 mph 1008.5mb 49f 55f
8:30am 14 20 mph 1008.5mb 49f 55f
8:24am 15 21 mph 1008.5mb 49f 55f
8:18am 15 20 mph 1008.5mb 49f 54f
8:12am 13 16 mph 1008.5mb 49f 54f
8:06am 14 20 mph 1008.5mb 49f 55f
8:00am 11 21 mph 1008.5mb 49f 54f
7:54am 14 17 mph 1008.5mb 49f 54f
7:48am 14 20 mph 1008.5mb 49f 54f
7:36am 15 21 mph 1008.5mb 49f 55f
7:30am 17 22 mph 1008.4mb 49f 54f
7:24am 13 17 mph 1008.5mb 49f 54f
7:18am 13 18 mph 1008.4mb 49f 54f
7:12am 14 18 mph 1008.5mb 49f 54f
7:06am 14 18 mph 1008.4mb 49f 54f
7:00am 15 18 mph 1008.4mb 49f 54f
6:54am 14 18 mph 1008.4mb 49f 54f
6:48am 14 17 mph 1008.4mb 49f 54f
6:36am 14 18 mph 1008.3mb 49f 54f
6:30am 15 18 mph 1008.2mb 49f 54f
6:24am 13 18 mph 1008.2mb 49f 54f
6:18am 14 18 mph 1008.1mb 49f 54f
6:12am 15 18 mph 1008.1mb 49f 54f
6:06am 13 16 mph 1008.2mb 49f 54f
6:00am 13 16 mph 1008.1mb 49f 54f
5:54am 14 16 mph 1008.1mb 49f 54f
5:48am 11 16 mph 1008mb 49f 54f
5:36am 15 18 mph 1008mb 49f 54f
5:30am 10 15 mph 1008.1mb 49f 54f
5:24am 13 16 mph 1008.2mb 49f 54f
5:18am 10 17 mph 1008.1mb 49f 54f
5:12am 13 17 mph 1008.2mb 49f 54f
5:06am 13 16 mph 1008.2mb 49f 54f
5:00am 13 18 mph 1008.3mb 49f 54f
4:54am 14 17 mph 1008.3mb 49f 54f
4:48am 16 20 mph 1008.3mb 49f 54f
4:36am 15 18 mph 1008.2mb 50f 55f
4:30am 15 22 mph 1008.2mb 50f 54f
4:24am 14 16 mph 1008.2mb 50f 55f
4:18am 13 21 mph 1008.2mb 51f 54f
4:12am 11 23 mph 1008.3mb 51f 55f
4:06am 14 21 mph 1008.2mb 51f 55f
4:00am 17 22 mph 1008.3mb 51f 55f
3:54am 14 17 mph 1008.2mb 51f 54f
3:48am 13 16 mph 1008.3mb 51f 54f
3:36am 13 18 mph 1008.3mb 51f 54f
3:30am 15 21 mph 1008.4mb 51f 54f
3:24am 14 20 mph 1008.5mb 51f 55f
3:18am 14 20 mph 1008.6mb 51f 55f
3:12am 15 22 mph 1008.7mb 51f 55f
3:06am 15 21 mph 1008.7mb 51f 55f
3:00am 14 22 mph 1008.8mb 51f 55f
2:54am 16 25 mph 1008.8mb 51f 55f
2:48am 14 21 mph 1009mb 50f 55f
2:36am 15 20 mph 1009mb 50f 55f
2:30am 14 20 mph 1009mb 49f 55f
2:24am 13 17 mph 1009.1mb 49f 55f
2:18am 13 16 mph 1009.1mb 49f 55f
2:12am 13 16 mph 1009.2mb 49f 54f
2:06am 11 14 mph 1009.2mb 49f 55f
2:00am 14 15 mph 1009.2mb 49f 55f
1:54am 10 14 mph 1009.1mb 49f 54f
1:48am 11 14 mph 1009.2mb 49f 54f
1:36am 11 15 mph 1009.3mb 49f 54f
1:30am 14 16 mph 1009.2mb 49f 54f
1:24am 15 17 mph 1009.3mb 49f 55f
1:18am 14 18 mph 1009.3mb 49f 54f
1:12am 15 18 mph 1009.3mb 49f 55f
1:06am 14 17 mph 1009.3mb 49f 54f
1:00am 13 17 mph 1009.4mb 49f 54f
12:54am 14 16 mph 1009.4mb 49f 54f
12:48am 13 15 mph 1009.4mb 49f 54f
12:36am 16 21 mph 1009.4mb 49f 54f
12:30am 16 20 mph 1009.4mb 49f 55f
12:24am 15 22 mph 1009.5mb 49f 55f
12:18am 17 22 mph 1009.4mb 49f 55f
12:12am 15 22 mph 1009.4mb 49f 54f
12:06am 16 22 mph 1009.4mb 49f 54f
12:00am 16 21 mph 1009.4mb 49f 54f
Wed 11/26 11:54pm 15 22 mph 1009.3mb 49f 54f
11:48pm 15 18 mph 1009.3mb 49f 54f
11:36pm 14 23 mph 1009.2mb 49f 55f
11:30pm 22 31 mph 1009.2mb 49f 54f
11:24pm 15 23 mph 1009mb 49f 54f
11:18pm 20 29 mph 1009mb 49f 54f
11:12pm 20 28 mph 1008.8mb 49f 54f
11:06pm 20 26 mph 1008.8mb 48f 55f
11:00pm 20 30 mph 1008.6mb 48f 55f
10:54pm 22 31 mph 1008.6mb 48f 55f
10:48pm 22 30 mph 1008.5mb 49f 55f
10:36pm 24 32 mph 1008.4mb 48f 55f
10:30pm 25 36 mph 1008.5mb 48f 55f
10:24pm 18 32 mph 1008.6mb 48f 55f
10:18pm 23 37 mph 1008.5mb 48f 54f
10:12pm 22 34 mph 1008.4mb 48f 54f
10:06pm 20 29 mph 1008.3mb 48f 54f
10:00pm 16 34 mph 1008.3mb 48f 54f
9:54pm 16 32 mph 1008.4mb 48f 54f
9:48pm 17 29 mph 1008.5mb 48f 55f
9:36pm 20 31 mph 1008.5mb 48f 55f
9:30pm 20 30 mph 1008.4mb 48f 55f
9:24pm 20 34 mph 1008.5mb 48f 55f
9:18pm 20 37 mph 1008.6mb 48f 55f
9:12pm 20 32 mph 1008.6mb 48f 55f
9:06pm 21 32 mph 1008.6mb 48f 55f
9:00pm 21 32 mph 1008.3mb 48f 55f
8:54pm 23 39 mph 1008.6mb 48f 55f
8:48pm 20 37 mph 1008.6mb 48f 55f
8:36pm 21 39 mph 1008.5mb 48f 55f
8:30pm 22 31 mph 1008.6mb 48f 55f
8:24pm 20 34 mph 1008.7mb 48f 55f
8:18pm 17 33 mph 1008.8mb 48f 55f
8:12pm 17 30 mph 1008.6mb 48f 55f
8:06pm 18 31 mph 1008.9mb 48f 55f
8:00pm 21 38 mph 1009.2mb 48f 55f
7:54pm 22 37 mph 1009.4mb 48f 55f
7:48pm 22 32 mph 1009.3mb 48f 55f
7:36pm 18 32 mph 1009.5mb 48f 55f
7:30pm 15 31 mph 1009.8mb 48f 55f
7:24pm 20 29 mph 1009.8mb 48f 55f
7:18pm 18 29 mph 1009.8mb 48f 55f
7:12pm 18 24 mph 1009.7mb 48f 54f
7:06pm 14 28 mph 1009.5mb 48f 54f
7:00pm 15 25 mph 1009.6mb 48f 54f
6:54pm 16 32 mph 1009.6mb 48f 54f
6:48pm 21 34 mph 1010.3mb 48f 54f
6:36pm 14 28 mph 1010.9mb 48f 54f
6:30pm 15 24 mph 1010.8mb 48f 54f
6:24pm 22 33 mph 1010.6mb 48f 54f
6:18pm 17 26 mph 1010.7mb 48f 54f
6:12pm 21 38 mph 1010.8mb 48f 54f
6:06pm 18 26 mph 1011.1mb 48f 54f
6:00pm 16 28 mph 1011.2mb 48f 54f
5:54pm 18 24 mph 1011.3mb 48f 54f
5:48pm 13 23 mph 1011mb 48f 54f
5:36pm 13 21 mph 1011.5mb 48f 54f
5:30pm 13 25 mph 1011.3mb 48f 54f
5:24pm 11 21 mph 1011.4mb 48f 54f
5:18pm 15 25 mph 1011.5mb 48f 54f
5:12pm 14 21 mph - - 54f
5:06pm 13 26 mph 1012.3mb 48f 54f
5:00pm 14 24 mph - - 54f
4:54pm 11 24 mph 1012.5mb 48f 54f
4:48pm 14 20 mph 1012.5mb 49f 54f
4:36pm  -  mph 1012mb 48f -
4:24pm  -  mph 1012.7mb 49f -
4:18pm  -  mph 1013.1mb 48f -
4:12pm  -  mph 1013.3mb 49f -
4:06pm  -  mph 1013.2mb 49f -
4:00pm  -  mph 1013.3mb 49f -
3:54pm  -  mph 1013.6mb 49f -
3:48pm  -  mph 1013.8mb 49f -
3:36pm 10 22 mph 1013.7mb 51f 54f
3:30pm 8 21 mph 1013.8mb 51f 53f
3:24pm 11 21 mph 1014.2mb 51f 53f
3:18pm 14 22 mph 1014.4mb 51f 53f
3:12pm 14 22 mph 1014.5mb 51f 53f
3:06pm 14 24 mph 1014.6mb 51f 53f
3:00pm 15 22 mph 1014.7mb 51f 54f
2:54pm 11 17 mph 1014.8mb 51f 54f
2:48pm 10 22 mph 1014.9mb 51f 53f
2:36pm 10 23 mph 1015.2mb 51f 53f
2:30pm 10 20 mph 1015.3mb 51f 53f
2:24pm 17 24 mph 1015.4mb 51f 53f
2:18pm 15 24 mph 1015.5mb 51f 53f
2:12pm 15 25 mph 1015.4mb 51f 53f
2:06pm 15 24 mph 1015.5mb 51f 53f
2:00pm 14 25 mph - - 53f
1:54pm 14 25 mph 1015.7mb 51f 53f
1:48pm 15 21 mph 1015.8mb 51f 53f
1:36pm 15 22 mph 1016.1mb 51f 53f
1:30pm 13 24 mph 1016.2mb 51f 53f
1:24pm 14 22 mph 1015.9mb 51f 53f
1:18pm 17 24 mph 1015.7mb 51f 53f
1:12pm 14 24 mph 1015.5mb 50f 53f
1:06pm 15 24 mph 1015.5mb 50f 53f
1:00pm 16 24 mph 1015.7mb 50f 53f
12:54pm 14 21 mph 1015.7mb 49f 53f
12:48pm 11 23 mph 1015.8mb 49f 53f
12:36pm 14 23 mph 1016.4mb 48f 53f
12:30pm 14 23 mph 1016.5mb 48f 53f
12:24pm 14 26 mph 1016.6mb 48f 53f
12:18pm 14 25 mph 1016.9mb 48f 53f
12:12pm 15 23 mph 1017.2mb 48f 53f
12:06pm 15 25 mph 1017.4mb 48f 53f
12:00pm 14 26 mph - - 53f
11:54am 15 22 mph 1017.2mb 48f 53f
11:48am 13 22 mph 1017.2mb 48f 53f
11:36am 15 24 mph 1017.3mb 48f 53f
11:30am 17 28 mph - - 53f
11:24am 15 28 mph 1017.4mb 48f 53f
11:18am 16 24 mph 1017.6mb 48f 53f
11:12am 16 25 mph 1017.8mb 48f 53f
11:06am 14 29 mph 1017.8mb 48f 54f
11:00am 16 26 mph 1017.7mb 48f 54f
10:54am 18 28 mph 1017.9mb 48f 54f
10:48am 16 23 mph 1017.8mb 48f 54f
10:36am 15 24 mph 1017.8mb 48f 54f
10:30am 17 22 mph 1017.8mb 48f 54f
10:24am 16 24 mph 1017.9mb 48f 54f
10:18am 16 25 mph 1018mb 48f 54f
10:12am 14 25 mph 1017.9mb 48f 54f
10:06am 15 25 mph 1017.9mb 48f 54f
10:00am 17 29 mph 1017.8mb 48f 54f
9:54am 13 24 mph 1017.9mb 48f 54f
9:48am 16 25 mph 1017.9mb 48f 54f
9:36am 15 30 mph 1018.1mb 48f 54f
9:30am 14 22 mph 1018.1mb 48f 54f
9:24am 16 25 mph 1018mb 48f 54f
9:18am 16 24 mph 1017.8mb 48f 54f
9:12am 14 23 mph 1017.8mb 48f 54f
9:06am 17 25 mph 1017.7mb 48f 54f
9:00am 15 22 mph 1017.8mb 48f 54f
8:54am 14 20 mph 1017.8mb 48f 54f
8:48am 15 23 mph 1017.9mb 48f 54f
8:36am 17 23 mph 1018mb 48f 54f
8:30am 15 21 mph 1018.1mb 48f 54f
8:24am 10 18 mph 1018mb 48f 54f
8:18am 14 24 mph 1018mb 48f 54f
8:12am 11 21 mph 1018.2mb 48f 54f
8:06am 13 23 mph 1018.2mb 48f 54f
8:00am 15 22 mph - - 54f
7:54am 10 22 mph 1018.1mb 48f 54f
7:48am 14 18 mph 1018.2mb 48f 54f
7:36am 14 20 mph 1018.5mb 48f 54f
7:30am 14 18 mph 1018.6mb 48f 54f
7:24am 14 17 mph 1018.7mb 48f 54f
7:18am 13 20 mph 1018.7mb 48f 54f
7:12am 14 18 mph 1018.6mb 48f 54f
7:06am 11 17 mph 1018.5mb 48f 54f
7:00am 14 21 mph 1018.6mb 48f 54f
6:54am 11 16 mph 1018.7mb 48f 54f
6:48am 13 16 mph 1018.8mb 48f 54f
6:36am 10 13 mph 1018.9mb 48f 53f
6:30am 10 15 mph 1018.9mb 48f 53f
6:24am 13 16 mph 1018.9mb 48f 54f
6:18am 13 16 mph 1018.7mb 48f 53f
6:12am 14 18 mph 1018.7mb 48f 54f
6:06am 14 21 mph 1018.6mb 48f 54f
6:00am 14 21 mph 1018.6mb 48f 54f
5:54am 14 17 mph 1018.7mb 48f 54f
5:48am 14 17 mph 1018.8mb 48f 54f
5:36am 14 21 mph 1018.8mb 48f 54f
5:30am 14 17 mph 1018.8mb 48f 54f
5:24am 13 18 mph 1018.8mb 48f 54f
5:18am 15 20 mph 1018.9mb 48f 54f
5:12am 14 17 mph 1018.9mb 48f 54f
5:06am 13 18 mph 1018.9mb 48f 54f
5:00am 13 20 mph 1019mb 48f 54f
4:54am 13 18 mph 1019mb 48f 54f
4:48am 10 15 mph 1019mb 48f 54f
4:36am 14 18 mph 1019.1mb 48f 54f
4:30am 14 18 mph 1019.1mb 48f 54f
4:24am 11 17 mph 1019.1mb 48f 54f
4:18am 13 16 mph 1019mb 48f 54f
4:12am 14 17 mph 1019.1mb 48f 54f
4:06am 13 18 mph 1019.2mb 48f 54f
4:00am 15 20 mph 1019.3mb 48f 54f
3:54am 14 18 mph 1019.2mb 48f 55f
3:48am 13 17 mph 1019.4mb 48f 54f
3:36am 11 16 mph 1019.7mb 48f 54f
3:30am 11 16 mph 1019.8mb 48f 54f
3:24am 13 20 mph 1019.8mb 48f 54f
3:18am 10 15 mph 1020mb 49f 54f
3:12am 8 14 mph 1020mb 48f 55f
3:06am 8 16 mph 1020mb 49f 54f
3:00am 9 16 mph 1020.2mb 49f 54f
2:54am 13 17 mph 1020.1mb 49f 54f
2:48am 10 14 mph 1020.1mb 49f 54f
2:36am 9 17 mph 1020.1mb 49f 54f
2:30am 11 17 mph 1020.1mb 49f 54f
2:24am 11 17 mph 1020.2mb 49f 54f
2:18am 13 16 mph 1020.2mb 48f 54f
2:12am 13 15 mph 1020.3mb 48f 54f
2:06am 9 15 mph 1020.2mb 48f 54f
2:00am 8 11 mph 1020.3mb 48f 54f
1:54am 9 13 mph 1020.4mb 48f 54f
1:48am 9 14 mph 1020.5mb 48f 54f
1:36am 10 14 mph 1020.5mb 48f 54f
1:30am 9 13 mph 1020.5mb 48f 54f
1:24am 11 14 mph 1020.5mb 48f 54f
1:18am 9 14 mph 1020.5mb 48f 54f
1:12am 9 14 mph 1020.6mb 48f 54f
1:06am 11 15 mph 1020.7mb 48f 54f
1:00am 10 14 mph 1020.7mb 48f 54f
12:54am 10 13 mph 1020.8mb 48f 54f
12:48am 10 14 mph 1020.7mb 47f 54f
12:36am 11 14 mph 1020.6mb 47f 54f
12:30am 10 16 mph 1020.6mb 47f 54f
12:24am 11 15 mph 1020.6mb 47f 54f
12:18am 11 15 mph 1020.6mb 47f 54f
12:12am 13 16 mph 1020.7mb 47f 54f
12:06am 9 14 mph 1021mb 47f 54f
12:00am 10 14 mph 1021.1mb 47f 54f
Tue 11/25 11:54pm 10 14 mph 1021.2mb 48f 54f
11:48pm 10 13 mph 1021.1mb 48f 54f
11:36pm 9 13 mph 1020.9mb 47f 54f
11:30pm 10 15 mph 1020.8mb 47f 54f
11:24pm 11 16 mph 1020.9mb 47f 54f
11:18pm 13 16 mph 1020.9mb 47f 54f
11:12pm 11 14 mph 1020.9mb 47f 54f
11:06pm 10 15 mph 1020.8mb 47f 54f
11:00pm 10 15 mph 1020.9mb 47f 54f
10:54pm 10 14 mph 1020.9mb 47f 53f
10:48pm 8 11 mph 1020.9mb 47f 53f
10:36pm 8 11 mph 1021mb 47f 53f
10:30pm 8 10 mph 1020.9mb 47f 53f
10:24pm 7 11 mph 1020.9mb 47f 54f
10:18pm 7 11 mph 1020.8mb 47f 54f
10:12pm 8 10 mph 1020.7mb 47f 54f
10:06pm 9 11 mph 1020.8mb 47f 54f
10:00pm 10 14 mph 1020.7mb 47f 54f
9:54pm 10 13 mph 1020.7mb 47f 54f
9:48pm 8 10 mph 1020.8mb 47f 54f
9:36pm 8 11 mph 1020.8mb 47f 53f
9:30pm 7 10 mph 1020.8mb 47f 53f
9:24pm 7 10 mph 1020.7mb 47f 53f
9:18pm 7 9 mph 1020.8mb 47f 53f
9:12pm 6 9 mph 1020.9mb 47f 54f
9:06pm 7 9 mph 1020.7mb 47f 54f
9:00pm 8 11 mph 1020.7mb 47f 54f
8:54pm 8 13 mph 1020.8mb 47f 54f
8:48pm 11 17 mph 1020.7mb 47f 54f
8:36pm 9 18 mph 1020.6mb 47f 54f
8:30pm 9 18 mph 1020.6mb 47f 54f
8:24pm 11 21 mph 1020.5mb 47f 54f
8:18pm 10 18 mph 1020.5mb 47f 54f
8:12pm 10 15 mph 1020.5mb 47f 54f
8:06pm 11 15 mph 1020.6mb 47f 54f
8:00pm 11 14 mph 1020.6mb 47f 55f
7:54pm 10 13 mph 1020.6mb 47f 55f
7:48pm 11 15 mph 1020.7mb 47f 55f
7:36pm 10 15 mph 1020.7mb 47f 55f
7:30pm 11 15 mph 1020.7mb 47f 55f
7:24pm 11 15 mph 1020.6mb 47f 55f
7:18pm 10 14 mph 1020.5mb 47f 55f
7:12pm 10 15 mph 1020.4mb 47f 55f
7:06pm 11 14 mph 1020.4mb 47f 54f
7:00pm 10 14 mph 1020.4mb 47f 54f
6:54pm 10 13 mph 1020.4mb 47f 54f
6:48pm 11 15 mph 1020.4mb 47f 54f
6:36pm 10 13 mph 1020.7mb 47f 54f
6:30pm 11 15 mph 1020.8mb 47f 54f
6:24pm 10 14 mph 1020.7mb 47f 53f
6:18pm 11 21 mph 1020.9mb 47f 54f
6:12pm 13 18 mph 1020.9mb 47f 54f
6:06pm 13 21 mph 1020.9mb 47f 54f
6:00pm 14 20 mph 1020.8mb 47f 54f
5:54pm 13 16 mph 1020.9mb 47f 54f
5:48pm 13 16 mph 1020.9mb 47f 54f
5:36pm 10 14 mph 1020.9mb 47f 54f
5:30pm 10 18 mph 1020.8mb 47f 55f
5:24pm 14 22 mph 1020.9mb 47f 54f
5:18pm 13 22 mph 1020.9mb 47f 54f
5:12pm 10 14 mph 1021mb 47f 54f
5:06pm 11 14 mph 1020.9mb 47f 54f
5:00pm 10 18 mph 1020.8mb 47f 54f
4:54pm 13 15 mph 1020.8mb 47f 54f
4:48pm 13 20 mph 1020.8mb 47f 54f
4:36pm 15 21 mph 1021mb 47f 54f
4:30pm 10 16 mph 1021.1mb 47f 54f
4:24pm 11 16 mph 1021mb 47f 54f
4:18pm 13 15 mph 1020.9mb 47f 54f
4:12pm 13 18 mph 1020.9mb 47f 53f
4:06pm 11 15 mph 1020.8mb 47f 54f
4:00pm 13 14 mph 1020.8mb 48f 53f
3:54pm 9 14 mph 1020.9mb 48f 54f
3:48pm 11 16 mph 1020.9mb 48f 54f
3:36pm 11 16 mph 1020.9mb 49f 54f
3:30pm 11 17 mph 1020.8mb 49f 54f
3:24pm 11 17 mph 1020.8mb 50f 54f
3:18pm 13 17 mph 1020.7mb 50f 54f
3:12pm 14 18 mph 1020.7mb 51f 54f
3:06pm 14 17 mph 1020.8mb 51f 54f
3:00pm 13 16 mph 1020.8mb 51f 54f
2:54pm 11 15 mph 1020.9mb 52f 54f
2:48pm 13 16 mph 1020.8mb 52f 54f
2:36pm 14 17 mph 1020.8mb 52f 54f
2:30pm 13 17 mph 1020.9mb 52f 54f
2:24pm 13 18 mph 1020.8mb 52f 54f
2:18pm 13 16 mph 1020.8mb 52f 54f
2:12pm 13 17 mph 1020.8mb 52f 54f
2:06pm 14 18 mph 1020.8mb 52f 54f
2:00pm 14 18 mph 1020.8mb 52f 54f
1:54pm 13 18 mph 1020.8mb 52f 54f
1:48pm 15 18 mph 1020.7mb 52f 54f
1:36pm 15 22 mph 1020.7mb 52f 54f
1:30pm 14 18 mph 1020.8mb 52f 55f
1:24pm 14 17 mph 1020.7mb 52f 55f
1:18pm 13 18 mph 1020.7mb 52f 55f
1:12pm 14 17 mph 1020.8mb 52f 54f
1:06pm 14 18 mph 1020.9mb 52f 54f
1:00pm 10 18 mph 1021mb 52f 54f
12:54pm 9 17 mph 1021mb 52f 54f
12:48pm 10 16 mph 1021mb 52f 54f
12:36pm 9 17 mph 1021mb 52f 53f
12:30pm 9 18 mph 1021mb 52f 53f
12:24pm 10 16 mph 1021mb 52f 52f
12:18pm 13 18 mph 1021mb 52f 52f
12:12pm 9 15 mph 1021.1mb 52f 51f
12:06pm 6 11 mph 1021.2mb 52f 51f
12:00pm 2 14 mph 1021.3mb 52f 51f
11:54am 6 11 mph 1021.3mb 51f 51f
11:48am 8 15 mph 1021.3mb 51f 50f
11:36am 7 13 mph 1021.5mb 51f 50f
11:30am 5 13 mph 1021.6mb 51f 50f
11:24am 6 10 mph 1021.6mb 51f 50f
11:18am 3 8 mph 1021.7mb 51f 50f
11:12am 8 10 mph 1021.8mb 50f 50f
11:06am 3 7 mph 1021.8mb 50f 50f
11:00am 3 6 mph 1021.8mb 49f 50f
10:54am 3 5 mph 1021.9mb 48f 50f
10:48am 2 5 mph 1022.1mb 47f 50f
10:36am 3 5 mph 1022.2mb 46f 50f
10:30am 2 3 mph 1022.3mb 46f 50f
10:24am 2 3 mph 1022.4mb 46f 50f
10:18am 2
mph
1022.5mb 46f 50f
10:12am 1 2 mph 1022.4mb 46f 50f